»·PEaware :: N899M KSAN-KFAT

N899M :: KSAN-KFAT

FLIGHT INFORMATION

Flight Status: Arrived
Operator: Privately registered:
United States
More flights under this callsign
Pilot: Robert C. (30425)
Aircraft: Unknown
(EPIC)
More flights by this aircraft type
Origin: KSAN San Diego Intl-Lindbergh
United States
Destination: KFAT Fresno Yosemite Intl
United States
More flights between these airports :: More routes between these airports
Route: +MZB V25 LAX V23 FRAME
File this flight plan on PilotEdge
Remarks:
Altitude:
(Current/Filed)
10,000ft
Speed:
(Current/Filed)
275kts
Departed: 07-Oct-20 08:33 PM
Arrived: 07-Oct-20 09:38 PM
Distance/Time
Traveled:
272nm/1:04
Distance/Time
To Go:
Arrived

Flight Plot

Page will automatically refresh every two minutes.

Flight plan parsing failed; only flown route is shown


Map Options




Map Legend


Flown Route
Filed Route
Departure Airport
Arrival Airport
Navaid (VOR, NDB)
Fix

Horizontal Profiles

Position Reports

Time Latitude Longitude Heading Altitude Ground
Speed
07-Oct-20 19:54 32.732389 -117.177887 193 20ft 0kts
07-Oct-20 19:55 32.732389 -117.177887 193 20ft 0kts
07-Oct-20 19:56 32.732389 -117.177887 193 20ft 0kts
07-Oct-20 19:57 32.732389 -117.177887 193 20ft 0kts
07-Oct-20 19:58 32.732389 -117.177887 193 20ft 0kts
07-Oct-20 19:59 32.732389 -117.177887 193 20ft 0kts
07-Oct-20 20:00 32.732389 -117.177887 193 20ft 0kts
07-Oct-20 20:01 32.732389 -117.177887 193 20ft 0kts
07-Oct-20 20:02 32.732389 -117.177887 193 20ft 0kts
07-Oct-20 20:03 32.732389 -117.177887 193 20ft 0kts
07-Oct-20 20:04 32.732389 -117.177887 193 20ft 0kts
07-Oct-20 20:05 32.732389 -117.177887 193 20ft 0kts
07-Oct-20 20:06 32.732389 -117.177887 193 20ft 0kts
07-Oct-20 20:07 32.732389 -117.177887 193 20ft 0kts
07-Oct-20 20:08 32.732389 -117.177887 193 20ft 0kts
07-Oct-20 20:09 32.732389 -117.177887 193 20ft 0kts
07-Oct-20 20:10 32.732389 -117.177887 193 20ft 0kts
07-Oct-20 20:11 32.732389 -117.177887 193 20ft 0kts
07-Oct-20 20:12 32.732389 -117.177887 193 20ft 0kts
07-Oct-20 20:13 32.732389 -117.177887 193 20ft 0kts
07-Oct-20 20:14 32.732389 -117.177887 193 20ft 0kts
07-Oct-20 20:15 32.732389 -117.177887 193 20ft 0kts
07-Oct-20 20:16 32.732389 -117.177887 193 20ft 0kts
07-Oct-20 20:17 32.732389 -117.177887 193 20ft 0kts
07-Oct-20 20:18 32.732389 -117.177887 193 20ft 0kts
07-Oct-20 20:19 32.732389 -117.177887 193 20ft 0kts
07-Oct-20 20:20 32.732389 -117.177887 193 20ft 0kts
07-Oct-20 20:21 32.732389 -117.177887 193 20ft 0kts
07-Oct-20 20:22 32.732389 -117.177887 193 20ft 0kts
07-Oct-20 20:23 32.732389 -117.177887 193 20ft 0kts
07-Oct-20 20:24 32.732389 -117.177887 193 20ft 0kts
07-Oct-20 20:25 32.732389 -117.177887 193 20ft 0kts
07-Oct-20 20:26 32.732389 -117.177887 193 20ft 0kts
07-Oct-20 20:27 32.732389 -117.177887 193 20ft 0kts
07-Oct-20 20:28 32.732367 -117.177894 193 20ft 1kts
07-Oct-20 20:29 32.731499 -117.176761 124 20ft 12kts
07-Oct-20 20:30 32.730982 -117.175497 143 20ft 0kts
07-Oct-20 20:31 32.730611 -117.175255 163 20ft 11kts
07-Oct-20 20:32 32.733419 -117.188837 282 111ft 143kts
07-Oct-20 20:33 32.757078 -117.246514 301 1366ft 236kts
07-Oct-20 20:34 32.795005 -117.315765 301 2890ft 260kts
07-Oct-20 20:35 32.843015 -117.380745 320 4392ft 269kts
07-Oct-20 20:36 32.901571 -117.435897 319 5884ft 266kts
07-Oct-20 20:37 32.958200 -117.489770 319 7364ft 257kts
07-Oct-20 20:38 33.014000 -117.542944 318 8848ft 258kts
07-Oct-20 20:39 33.070809 -117.597200 318 9969ft 271kts
07-Oct-20 20:40 33.132160 -117.655862 317 9973ft 290kts
07-Oct-20 20:41 33.196347 -117.717368 319 9970ft 301kts
07-Oct-20 20:42 33.261869 -117.780251 318 9965ft 298kts
07-Oct-20 20:43 33.326222 -117.842181 318 9980ft 296kts
07-Oct-20 20:44 33.390513 -117.904146 318 9985ft 297kts
07-Oct-20 20:45 33.455007 -117.966468 318 9981ft 297kts
07-Oct-20 20:46 33.519219 -118.028570 318 9981ft 297kts
07-Oct-20 20:47 33.583662 -118.091055 318 9982ft 297kts
07-Oct-20 20:48 33.647654 -118.153224 318 9991ft 296kts
07-Oct-20 20:49 33.711747 -118.215611 318 9990ft 296kts
07-Oct-20 20:50 33.775787 -118.278073 318 9982ft 295kts
07-Oct-20 20:51 33.839435 -118.340280 318 9982ft 295kts
07-Oct-20 20:52 33.903084 -118.402610 318 9982ft 294kts
07-Oct-20 20:53 33.974164 -118.451942 335 9981ft 299kts
07-Oct-20 20:54 34.051312 -118.489770 336 9981ft 300kts
07-Oct-20 20:55 34.128572 -118.527586 336 9985ft 300kts
07-Oct-20 20:56 34.206047 -118.565583 336 9982ft 301kts
07-Oct-20 20:57 34.283886 -118.603857 336 9980ft 302kts
07-Oct-20 20:58 34.361722 -118.642122 336 9980ft 302kts
07-Oct-20 20:59 34.439434 -118.680364 335 9985ft 301kts
07-Oct-20 21:00 34.516817 -118.718774 335 9990ft 299kts
07-Oct-20 21:02 34.593627 -118.756843 334 10008ft 297kts
07-Oct-20 21:03 34.669899 -118.794686 334 10037ft 296kts
07-Oct-20 21:04 34.745968 -118.832520 335 10081ft 295kts
07-Oct-20 21:05 34.823012 -118.867916 344 10053ft 298kts
07-Oct-20 21:06 34.902810 -118.895398 345 10024ft 298kts
07-Oct-20 21:07 34.982368 -118.922824 345 10000ft 295kts
07-Oct-20 21:08 35.061063 -118.949966 345 9972ft 292kts
07-Oct-20 21:09 35.139116 -118.977028 345 9924ft 290kts
07-Oct-20 21:10 35.216412 -119.003864 345 9900ft 288kts
07-Oct-20 21:11 35.292986 -119.030514 345 9899ft 285kts
07-Oct-20 21:12 35.368916 -119.056952 345 9899ft 283kts
07-Oct-20 21:13 35.444532 -119.083364 345 9908ft 282kts
07-Oct-20 21:14 35.518665 -119.114582 339 9908ft 282kts
07-Oct-20 21:15 35.591398 -119.151226 339 9908ft 282kts
07-Oct-20 21:16 35.663252 -119.187542 339 9901ft 265kts
07-Oct-20 21:17 35.727349 -119.219938 340 9905ft 236kts
07-Oct-20 21:17 35.777198 -119.244964 340 9907ft 229kts
07-Oct-20 21:18 35.835710 -119.274471 339 9908ft 226kts
07-Oct-20 21:20 35.903269 -119.308953 339 9910ft 225kts
07-Oct-20 21:20 35.951461 -119.333593 339 9911ft 224kts
07-Oct-20 21:21 36.009914 -119.363504 339 9505ft 240kts
07-Oct-20 21:23 36.085470 -119.402265 339 8356ft 260kts
07-Oct-20 21:23 36.141970 -119.431159 338 7526ft 264kts
07-Oct-20 21:25 36.225708 -119.451093 353 6366ft 265kts
07-Oct-20 21:25 36.285966 -119.460549 353 5770ft 259kts
07-Oct-20 21:26 36.357250 -119.471666 353 5070ft 257kts
07-Oct-20 21:27 36.428460 -119.482810 353 4368ft 257kts
07-Oct-20 21:28 36.497976 -119.493720 353 3561ft 235kts
07-Oct-20 21:29 36.557364 -119.503051 353 3024ft 201kts
07-Oct-20 21:30 36.607680 -119.510971 352 2983ft 166kts
07-Oct-20 21:31 36.651763 -119.517916 352 2989ft 157kts
07-Oct-20 21:32 36.682843 -119.553485 307 2990ft 157kts
07-Oct-20 21:33 36.706825 -119.595138 307 2984ft 139kts
07-Oct-20 21:34 36.729301 -119.635118 306 1837ft 138kts
07-Oct-20 21:35 36.747536 -119.667343 308 1036ft 115kts
07-Oct-20 21:36 36.765419 -119.697974 307 526ft 96kts
07-Oct-20 21:37 36.775023 -119.713631 28 336ft 17kts
07-Oct-20 21:38 36.775536 -119.713239 29 336ft 0kts
07-Oct-20 21:39 36.774743 -119.709963 120 336ft 8kts
07-Oct-20 21:40 36.773951 -119.708100 115 336ft 10kts
07-Oct-20 21:41 36.773852 -119.705062 118 336ft 0kts

Navigation Log

Ident Type
Flight plan parsing failed, navigation log unavailable